»·PEaware :: N204WT KDLO-KEMT

N204WT :: KDLO-KEMT

FLIGHT INFORMATION

Flight Status: Arrived
Operator: Privately registered:
United States
More flights under this callsign
Pilot: Carson T. (20437)
Aircraft: PIPER PA-30 TWIN COMANCHE
(PA30)
More flights by this aircraft type
Origin: KDLO Delano Mun
United States
Destination: KEMT El Monte
United States
More flights between these airports :: More routes between these airports
Route: LHS
File this flight plan on PilotEdge
Remarks:
Altitude:
(Current/Filed)
7,500ft
Speed:
(Current/Filed)
160kts
Departed: 15-Oct-18 12:53 PM
Arrived: 15-Oct-18 01:46 PM
Distance/Time
Traveled:
115nm/0:52
Distance/Time
To Go:
Arrived

Flight Plot

Page will automatically refresh every two minutes.


Map Options




Map Legend


Flown Route
Filed Route
Departure Airport
Arrival Airport
Navaid (VOR, NDB)
Fix

Horizontal Profiles

Position Reports

Time Latitude Longitude Heading Altitude Ground
Speed
15-Oct-18 12:46 35.747619 -119.240551 248 317ft 0kts
15-Oct-18 12:47 35.747619 -119.240551 248 317ft 0kts
15-Oct-18 12:48 35.747619 -119.240551 248 317ft 0kts
15-Oct-18 12:49 35.747619 -119.240551 248 317ft 0kts
15-Oct-18 12:50 35.747619 -119.240551 248 317ft 0kts
15-Oct-18 12:51 35.747619 -119.240551 248 317ft 0kts
15-Oct-18 12:52 35.747619 -119.240551 248 317ft 0kts
15-Oct-18 12:53 35.747728 -119.240181 68 317ft 8kts
15-Oct-18 12:54 35.747713 -119.238023 68 317ft 0kts
15-Oct-18 12:55 35.737453 -119.232801 163 509ft 84kts
15-Oct-18 12:56 35.712913 -119.221341 160 1782ft 97kts
15-Oct-18 12:57 35.685668 -119.207361 159 2870ft 110kts
15-Oct-18 12:58 35.660662 -119.188512 141 3989ft 99kts
15-Oct-18 12:59 35.638574 -119.171718 155 4849ft 96kts
15-Oct-18 13:00 35.612583 -119.155284 156 5423ft 111kts
15-Oct-18 13:01 35.584097 -119.137318 157 5945ft 117kts
15-Oct-18 13:02 35.553867 -119.118317 158 6325ft 126kts
15-Oct-18 13:03 35.522106 -119.098324 158 6632ft 129kts
15-Oct-18 13:04 35.490191 -119.078341 158 6923ft 129kts
15-Oct-18 13:05 35.458287 -119.058292 157 7221ft 128kts
15-Oct-18 13:06 35.426761 -119.038483 157 7503ft 126kts
15-Oct-18 13:07 35.393623 -119.017763 157 7503ft 138kts
15-Oct-18 13:08 35.358850 -118.995969 156 7500ft 141kts
15-Oct-18 13:09 35.323859 -118.974075 156 7500ft 141kts
15-Oct-18 13:10 35.288780 -118.952154 156 7500ft 141kts
15-Oct-18 13:11 35.253678 -118.930242 156 7500ft 141kts
15-Oct-18 13:12 35.218569 -118.908347 157 7500ft 141kts
15-Oct-18 13:13 35.183973 -118.886784 157 7500ft 141kts
15-Oct-18 13:14 35.148647 -118.865802 166 7486ft 139kts
15-Oct-18 13:15 35.114615 -118.847095 141 7510ft 141kts
15-Oct-18 13:16 35.082827 -118.820787 156 7500ft 141kts
15-Oct-18 13:17 35.047123 -118.801113 160 7500ft 141kts
15-Oct-18 13:18 35.012077 -118.781126 157 7500ft 141kts
15-Oct-18 13:19 34.976904 -118.759478 156 7500ft 141kts
15-Oct-18 13:20 34.941701 -118.737470 156 7500ft 141kts
15-Oct-18 13:21 34.907167 -118.715987 156 7500ft 141kts
15-Oct-18 13:22 34.872043 -118.694153 156 7500ft 141kts
15-Oct-18 13:23 34.836900 -118.672326 156 7500ft 141kts
15-Oct-18 13:24 34.803533 -118.651618 156 7500ft 141kts
15-Oct-18 13:25 34.768387 -118.629825 157 7500ft 141kts
15-Oct-18 13:26 34.733205 -118.608028 157 7500ft 141kts
15-Oct-18 13:27 34.699241 -118.587004 157 7500ft 141kts
15-Oct-18 13:28 34.663936 -118.565414 152 7507ft 140kts
15-Oct-18 13:29 34.630383 -118.540204 142 7482ft 144kts
15-Oct-18 13:30 34.604075 -118.502059 138 7204ft 159kts
15-Oct-18 13:31 34.569242 -118.467929 146 6879ft 161kts
15-Oct-18 13:32 34.533079 -118.435480 148 6581ft 161kts
15-Oct-18 13:33 34.496822 -118.403012 147 6284ft 162kts
15-Oct-18 13:34 34.460344 -118.370149 147 5987ft 164kts
15-Oct-18 13:35 34.423552 -118.337030 146 5690ft 165kts
15-Oct-18 13:36 34.385032 -118.306579 152 5476ft 161kts
15-Oct-18 13:37 34.353298 -118.284583 152 5499ft 156kts
15-Oct-18 13:38 34.315483 -118.244589 135 5500ft 157kts
15-Oct-18 13:39 34.288963 -118.216031 144 5500ft 156kts
15-Oct-18 13:40 34.254634 -118.185236 146 5500ft 156kts
15-Oct-18 13:41 34.220740 -118.155035 146 5400ft 139kts
15-Oct-18 13:42 34.191053 -118.128550 145 4705ft 123kts
15-Oct-18 13:43 34.160980 -118.101693 145 3530ft 117kts
15-Oct-18 13:44 34.139524 -118.082554 145 2662ft 119kts
15-Oct-18 13:45 34.113592 -118.059098 145 1673ft 110kts
15-Oct-18 13:46 34.088748 -118.056179 202 1259ft 98kts
15-Oct-18 13:47 34.075907 -118.040270 27 514ft 82kts
15-Oct-18 13:48 34.090524 -118.032260 30 299ft 18kts
15-Oct-18 13:49 34.090361 -118.031513 161 299ft 10kts
15-Oct-18 13:50 34.089035 -118.031119 115 299ft 0kts
15-Oct-18 13:51 34.089035 -118.031118 115 299ft 0kts
15-Oct-18 13:52 34.089035 -118.031118 115 299ft 0kts
15-Oct-18 13:53 34.089035 -118.031118 115 299ft 0kts
15-Oct-18 13:54 34.089035 -118.031118 115 299ft 0kts
15-Oct-18 13:55 34.089035 -118.031117 115 299ft 0kts
15-Oct-18 13:56 34.089174 -118.032225 204 299ft 7kts
15-Oct-18 13:57 34.086361 -118.033839 205 299ft 17kts
15-Oct-18 13:58 34.083273 -118.035647 206 299ft 14kts
15-Oct-18 13:59 34.080934 -118.037128 259 299ft 0kts
15-Oct-18 14:00 34.080934 -118.037128 259 299ft 0kts
15-Oct-18 14:01 34.084112 -118.035917 25 299ft 76kts
15-Oct-18 14:02 34.111559 -118.033719 320 1164ft 113kts

Navigation Log

Ident Type
1. KDLO Airport
2. LHS Navaid
3. KEMT Airport